Time;durP1;ratioP1;P1;durP2;ratioP2;P2;SDS_P1;SDS_P2;PMS_P1;PMS_P2;Temp;Humidity;BMP_temperature;BMP_pressure;BME280_temperature;BME280_humidity;BME280_pressure;Samples;Min_cycle;Max_cycle;Signal;HPM_P1;HPM_P2
2023/02/15 00:01:27;;;;;;;28.00;18.05;;;7.10;97.50;;;;;;5014097;28;20073;-67
2023/02/15 00:03:53;;;;;;;28.83;18.73;;;7.10;97.60;;;;;;5033126;28;20068;-67
2023/02/15 00:06:19;;;;;;;27.20;17.73;;;7.00;97.70;;;;;;5012519;28;20108;-66
2023/02/15 00:08:44;;;;;;;28.73;18.15;;;7.00;97.70;;;;;;5031802;28;20026;-67
2023/02/15 00:11:12;;;;;;;28.95;17.23;;;6.90;97.70;;;;;;5012339;28;20036;-66
2023/02/15 00:13:41;;;;;;;29.52;17.95;;;6.90;97.80;;;;;;5029044;28;20152;-67
2023/02/15 00:16:12;;;;;;;28.80;18.05;;;6.80;97.80;;;;;;5036054;28;20021;-66
2023/02/15 00:18:41;;;;;;;28.05;18.98;;;6.80;97.80;;;;;;5046123;28;20739;-67
2023/02/15 00:21:09;;;;;;;31.92;18.40;;;6.80;97.90;;;;;;5034433;28;20036;-66
2023/02/15 00:23:36;;;;;;;32.78;18.73;;;6.70;97.90;;;;;;5012093;28;20473;-66
2023/02/15 00:26:08;;;;;;;30.33;19.15;;;6.70;97.90;;;;;;5017344;28;20304;-66
2023/02/15 00:28:34;;;;;;;28.23;19.67;;;6.70;98.20;;;;;;5023080;28;20030;-66
2023/02/15 00:31:07;;;;;;;30.58;19.02;;;6.60;98.00;;;;;;5022444;28;20469;-66
2023/02/15 00:33:33;;;;;;;32.33;19.48;;;6.60;98.00;;;;;;5030779;28;20464;-67
2023/02/15 00:35:59;;;;;;;35.30;20.58;;;6.60;98.10;;;;;;5030183;28;20021;-67
2023/02/15 00:38:27;;;;;;;33.03;19.42;;;6.50;98.20;;;;;;5030889;28;20042;-67
2023/02/15 00:40:57;;;;;;;29.77;19.20;;;6.50;98.20;;;;;;5033905;28;21213;-67
2023/02/15 00:43:24;;;;;;;29.95;20.08;;;6.50;98.30;;;;;;5029352;28;20030;-67
2023/02/15 00:45:50;;;;;;;30.98;19.27;;;6.50;98.30;;;;;;5022739;28;20030;-66
2023/02/15 00:48:16;;;;;;;34.20;20.70;;;6.50;98.30;;;;;;5011386;28;20080;-67
2023/02/15 00:50:45;;;;;;;28.48;18.88;;;6.40;98.30;;;;;;5016652;28;20409;-67
2023/02/15 00:53:10;;;;;;;31.45;20.20;;;6.40;98.40;;;;;;5029446;28;20091;-67
2023/02/15 00:55:36;;;;;;;32.58;20.63;;;6.40;98.40;;;;;;5014761;28;20058;-66
2023/02/15 00:58:02;;;;;;;35.30;20.42;;;6.40;98.40;;;;;;5015552;28;20531;-67
2023/02/15 01:00:28;;;;;;;31.85;19.38;;;6.30;98.50;;;;;;5018168;28;20091;-67
2023/02/15 01:02:53;;;;;;;29.60;19.63;;;6.30;98.50;;;;;;5033343;28;20481;-67
2023/02/15 01:05:19;;;;;;;35.42;21.30;;;6.30;98.60;;;;;;5013526;28;20095;-67
2023/02/15 01:07:44;;;;;;;31.20;19.98;;;6.30;98.60;;;;;;5017652;28;20477;-66
2023/02/15 01:10:10;;;;;;;34.72;21.05;;;6.20;98.70;;;;;;5030116;28;20038;-66
2023/02/15 01:12:36;;;;;;;34.00;19.80;;;6.20;98.70;;;;;;5035928;28;20078;-66
2023/02/15 01:15:01;;;;;;;39.22;21.52;;;6.20;98.80;;;;;;5019851;28;20095;-66
2023/02/15 01:17:27;;;;;;;37.08;20.63;;;6.20;98.90;;;;;;5022772;28;20573;-65
2023/02/15 01:19:52;;;;;;;32.47;20.45;;;6.10;98.90;;;;;;5015189;28;20515;-65
2023/02/15 01:22:18;;;;;;;35.08;21.75;;;6.10;98.90;;;;;;5035225;28;20029;-65
2023/02/15 01:24:45;;;;;;;37.95;22.02;;;6.10;98.90;;;;;;5011688;28;20056;-66
2023/02/15 01:27:10;;;;;;;32.15;20.00;;;6.10;98.90;;;;;;5034840;28;20145;-66
2023/02/15 01:29:36;;;;;;;31.17;19.73;;;6.10;98.90;;;;;;5017959;28;20530;-66
2023/02/15 01:32:02;;;;;;;30.13;19.38;;;6.00;98.90;;;;;;5012672;28;20449;-66
2023/02/15 01:34:29;;;;;;;33.80;21.08;;;6.00;98.90;;;;;;5018524;28;20080;-66
2023/02/15 01:36:55;;;;;;;35.40;21.65;;;6.00;99.20;;;;;;5031154;28;20033;-66
2023/02/15 01:39:21;;;;;;;36.80;22.23;;;6.00;99.00;;;;;;5017574;28;20026;-66
2023/02/15 01:41:46;;;;;;;32.03;19.52;;;5.90;99.00;;;;;;5023270;28;20025;-66
2023/02/15 01:44:45;;;;;;;34.70;20.83;;;5.90;99.10;;;;;;5018899;28;20125;-65
2023/02/15 01:47:15;;;;;;;33.78;20.92;;;5.90;99.10;;;;;;5015029;28;20026;-66
2023/02/15 01:49:44;;;;;;;36.88;22.25;;;5.90;99.10;;;;;;5015791;28;20068;-66
2023/02/15 01:52:14;;;;;;;36.20;22.50;;;5.80;99.10;;;;;;5016611;28;20041;-65
2023/02/15 01:54:40;;;;;;;36.70;21.80;;;5.80;99.20;;;;;;5014561;28;20109;-66
2023/02/15 01:57:12;;;;;;;37.38;22.08;;;5.70;99.10;;;;;;5015830;28;20040;-66
2023/02/15 01:59:40;;;;;;;36.70;22.48;;;5.70;99.20;;;;;;5034267;28;20069;-66
2023/02/15 02:02:09;;;;;;;36.45;22.52;;;5.70;99.30;;;;;;5034231;28;20030;-66
2023/02/15 02:05:07;;;;;;;38.45;22.25;;;5.70;99.30;;;;;;5014059;28;20476;-66
2023/02/15 02:07:38;;;;;;;36.42;22.60;;;5.70;99.30;;;;;;4984099;28;20107;-67
2023/02/15 02:10:05;;;;;;;37.50;21.58;;;5.60;99.30;;;;;;5032834;28;20604;-67
2023/02/15 02:12:32;;;;;;;37.03;21.42;;;5.60;99.30;;;;;;5031751;28;20435;-67
2023/02/15 02:14:58;;;;;;;38.78;22.77;;;5.60;99.40;;;;;;5033737;28;20026;-67
2023/02/15 02:17:56;;;;;;;37.38;23.20;;;5.50;99.40;;;;;;5030213;28;20022;-67
2023/02/15 02:20:43;;;;;;;39.17;22.70;;;5.50;99.50;;;;;;5033541;28;20037;-68
2023/02/15 02:23:27;;;;;;;37.33;22.27;;;5.50;99.40;;;;;;5015557;28;20042;-67
2023/02/15 02:26:14;;;;;;;38.10;23.35;;;5.40;99.40;;;;;;5020992;28;20367;-67
2023/02/15 02:29:15;;;;;;;40.28;23.70;;;5.40;99.40;;;;;;5015275;28;20057;-67
2023/02/15 02:31:59;;;;;;;39.30;22.42;;;5.40;99.50;;;;;;5012175;28;20057;-68
2023/02/15 02:35:19;;;;;;;41.25;23.45;;;5.30;99.50;;;;;;5014768;28;20061;-68
2023/02/15 02:37:45;;;;;;;34.58;20.75;;;5.30;99.50;;;;;;5002609;28;20033;-68
2023/02/15 02:40:23;;;;;;;41.08;24.63;;;5.30;99.50;;;;;;5030285;28;20079;-67
2023/02/15 02:43:06;;;;;;;38.83;22.83;;;5.30;99.60;;;;;;5009077;28;20029;-68
2023/02/15 02:45:43;;;;;;;44.08;24.85;;;5.30;99.70;;;;;;5033034;28;20072;-67
2023/02/15 02:48:14;;;;;;;40.17;24.02;;;5.20;99.70;;;;;;5032165;28;20033;-67
2023/02/15 02:50:41;;;;;;;43.10;24.60;;;5.30;99.80;;;;;;5033483;28;20033;-67
2023/02/15 02:53:08;;;;;;;46.00;27.40;;;5.20;99.80;;;;;;5032365;28;20405;-67
2023/02/15 02:55:45;;;;;;;48.25;27.70;;;5.20;99.80;;;;;;5029432;28;20032;-67
2023/02/15 02:58:24;;;;;;;47.83;28.35;;;5.20;99.80;;;;;;5014695;28;20034;-68
2023/02/15 03:00:57;;;;;;;53.08;30.60;;;5.20;99.80;;;;;;5011874;28;20065;-68
2023/02/15 03:03:28;;;;;;;54.33;30.27;;;5.10;99.80;;;;;;4998963;28;20518;-68
2023/02/15 03:05:57;;;;;;;48.65;27.08;;;5.10;99.80;;;;;;5012160;28;20049;-68
2023/02/15 03:08:27;;;;;;;50.53;30.27;;;5.10;99.90;;;;;;5012995;28;20042;-68
2023/02/15 03:10:55;;;;;;;52.60;28.25;;;5.00;99.80;;;;;;5013187;28;20439;-68
2023/02/15 03:13:22;;;;;;;46.95;27.35;;;5.00;99.90;;;;;;4999388;28;20049;-68
2023/02/15 03:18:41;;;;;;;46.08;26.55;;;5.00;99.90;;;;;;4997141;28;20038;-68
2023/02/15 03:21:09;;;;;;;54.30;29.33;;;4.90;99.90;;;;;;5002947;28;20050;-68
2023/02/15 03:23:37;;;;;;;52.33;28.85;;;4.90;99.90;;;;;;4998829;28;20022;-68
2023/02/15 03:26:06;;;;;;;50.78;27.60;;;4.90;99.90;;;;;;4992263;28;20030;-68
2023/02/15 03:28:47;;;;;;;49.80;29.23;;;4.80;99.90;;;;;;4995312;28;20042;-68
2023/02/15 03:31:15;;;;;;;50.50;27.50;;;4.80;99.90;;;;;;4994638;28;20138;-68
2023/02/15 03:33:48;;;;;;;56.58;28.52;;;4.80;99.90;;;;;;5008202;28;20113;-68
2023/02/15 03:36:23;;;;;;;54.88;27.92;;;4.70;99.90;;;;;;5011162;28;20485;-68
2023/02/15 03:39:20;;;;;;;53.08;28.83;;;4.80;99.90;;;;;;5011886;28;20030;-68
2023/02/15 03:41:55;;;;;;;48.72;26.80;;;4.70;99.90;;;;;;5001516;28;20026;-68
2023/02/15 03:44:29;;;;;;;49.15;26.70;;;4.70;99.90;;;;;;4992915;28;20030;-68
2023/02/15 03:47:05;;;;;;;52.08;28.70;;;4.60;99.90;;;;;;5001892;28;20029;-68
2023/02/15 03:49:41;;;;;;;52.92;27.60;;;4.60;99.90;;;;;;5007766;28;20487;-68
2023/02/15 03:52:09;;;;;;;49.22;28.05;;;4.60;99.90;;;;;;5002743;28;20140;-68
2023/02/15 03:54:46;;;;;;;49.03;27.13;;;4.50;99.90;;;;;;5012285;28;20507;-67
2023/02/15 04:03:06;;;;;;;53.50;27.48;;;4.40;99.90;;;;;;5031468;28;20183;-68
2023/02/15 04:05:33;;;;;;;50.95;27.77;;;4.30;99.90;;;;;;5031567;28;20082;-68
2023/02/15 04:07:59;;;;;;;52.70;28.75;;;4.30;99.90;;;;;;5014865;28;20472;-68
2023/02/15 04:13:09;;;;;;;49.97;25.83;;;4.20;99.90;;;;;;5012200;28;20060;-68
2023/02/15 04:18:19;;;;;;;46.43;25.50;;;4.20;99.90;;;;;;5012258;28;20072;-67
2023/02/15 04:26:14;;;;;;;49.35;26.45;;;4.00;99.90;;;;;;5019333;28;20041;-68
2023/02/15 04:28:40;;;;;;;49.75;27.35;;;4.00;99.90;;;;;;5031277;28;20359;-68
2023/02/15 04:31:05;;;;;;;47.60;25.88;;;3.90;99.90;;;;;;5012627;28;20028;-68
2023/02/15 04:33:31;;;;;;;50.92;25.92;;;3.90;99.90;;;;;;5023796;28;20034;-68
2023/02/15 04:35:56;;;;;;;48.42;25.63;;;3.80;99.90;;;;;;5012289;28;20022;-68
2023/02/15 04:38:22;;;;;;;49.17;24.70;;;3.80;99.90;;;;;;5012247;28;20033;-68
2023/02/15 04:40:52;;;;;;;52.22;28.23;;;3.80;99.90;;;;;;5015505;28;20392;-68
2023/02/15 04:43:19;;;;;;;47.65;26.65;;;3.70;99.90;;;;;;5022789;28;20026;-68
2023/02/15 04:45:51;;;;;;;51.65;26.27;;;3.70;99.90;;;;;;5030904;28;20112;-68
2023/02/15 04:48:17;;;;;;;46.00;25.98;;;3.70;99.90;;;;;;5013660;28;20065;-68
2023/02/15 04:50:44;;;;;;;51.58;27.60;;;3.60;99.90;;;;;;5025047;28;20037;-68
2023/02/15 04:53:10;;;;;;;48.65;24.75;;;3.50;99.90;;;;;;5028002;28;20068;-68
2023/02/15 04:55:36;;;;;;;50.25;26.52;;;3.50;99.90;;;;;;5030315;28;20018;-68
2023/02/15 04:58:01;;;;;;;53.47;27.35;;;3.50;99.90;;;;;;5022027;28;20120;-68
2023/02/15 05:00:27;;;;;;;48.40;26.30;;;3.40;99.90;;;;;;5021825;28;20055;-68
2023/02/15 05:02:53;;;;;;;51.50;26.58;;;3.40;99.90;;;;;;5011641;28;20113;-65
2023/02/15 05:05:18;;;;;;;48.08;26.60;;;3.40;99.90;;;;;;5014442;28;20033;-65
2023/02/15 05:07:44;;;;;;;47.10;26.17;;;3.30;99.90;;;;;;5011552;28;20040;-66
2023/02/15 05:10:10;;;;;;;60.63;28.48;;;3.40;99.90;;;;;;5016314;28;20037;-66
2023/02/15 05:12:36;;;;;;;47.78;25.95;;;3.40;99.90;;;;;;5030632;28;20034;-67
2023/02/15 05:15:01;;;;;;;47.17;26.27;;;3.30;99.90;;;;;;5018217;28;20022;-67
2023/02/15 05:17:27;;;;;;;47.08;24.17;;;3.30;99.90;;;;;;5011468;28;20029;-66
2023/02/15 05:19:53;;;;;;;53.28;26.63;;;3.30;99.90;;;;;;5027692;28;20024;-68
2023/02/15 05:22:18;;;;;;;47.70;26.77;;;3.30;99.90;;;;;;5022602;28;20386;-68
2023/02/15 05:30:13;;;;;;;46.70;26.05;;;3.40;99.90;;;;;;5018977;28;20037;-67
2023/02/15 05:32:39;;;;;;;49.00;24.77;;;3.30;99.90;;;;;;5029510;28;20037;-67
2023/02/15 05:35:06;;;;;;;50.97;25.77;;;3.30;99.90;;;;;;5015053;28;20386;-67
2023/02/15 05:37:32;;;;;;;50.88;24.83;;;3.30;99.90;;;;;;5011020;28;20037;-67
2023/02/15 05:39:57;;;;;;;49.03;27.35;;;3.30;99.90;;;;;;5012647;28;20037;-68
2023/02/15 05:42:23;;;;;;;49.20;28.45;;;3.30;99.90;;;;;;5015049;28;20092;-68
2023/02/15 05:44:48;;;;;;;52.05;28.02;;;3.30;99.90;;;;;;5027072;28;20393;-66
2023/02/15 05:47:14;;;;;;;58.50;28.58;;;3.30;99.90;;;;;;5008199;28;20050;-68
2023/02/15 05:49:40;;;;;;;51.67;27.20;;;3.30;99.90;;;;;;5024645;28;20060;-67
2023/02/15 05:52:05;;;;;;;51.65;27.58;;;3.30;99.90;;;;;;5020166;28;20400;-67
2023/02/15 05:54:31;;;;;;;49.78;26.17;;;3.30;99.90;;;;;;5021898;28;20044;-67
2023/02/15 05:56:57;;;;;;;53.97;28.27;;;3.30;99.90;;;;;;5014858;28;20544;-67
2023/02/15 05:59:22;;;;;;;50.78;28.15;;;3.30;99.90;;;;;;5014918;28;20421;-67
2023/02/15 06:01:48;;;;;;;52.38;27.30;;;3.30;99.90;;;;;;5014478;28;20033;-66
2023/02/15 06:04:14;;;;;;;54.60;28.17;;;3.30;99.90;;;;;;5016874;28;20030;-66
2023/02/15 06:06:39;;;;;;;54.28;27.27;;;3.30;99.90;;;;;;5011787;28;20034;-65
2023/02/15 06:09:05;;;;;;;55.08;27.48;;;3.30;99.90;;;;;;5029251;28;20025;-64
2023/02/15 06:11:30;;;;;;;56.40;28.77;;;3.30;99.90;;;;;;5028530;28;20049;-65
2023/02/15 06:13:56;;;;;;;56.20;28.65;;;3.40;99.90;;;;;;5006547;28;20022;-65
2023/02/15 06:16:22;;;;;;;57.78;29.30;;;3.40;99.90;;;;;;5036918;28;20547;-64
2023/02/15 06:18:47;;;;;;;57.35;29.20;;;3.30;99.90;;;;;;5033916;28;20060;-65
2023/02/15 06:21:13;;;;;;;59.40;31.08;;;3.30;99.90;;;;;;5025321;28;20038;-64
2023/02/15 06:23:39;;;;;;;58.42;29.60;;;3.30;99.90;;;;;;5020590;28;20052;-64
2023/02/15 06:26:04;;;;;;;59.85;31.70;;;3.30;99.90;;;;;;5013589;28;20026;-64
2023/02/15 06:28:30;;;;;;;62.70;29.75;;;3.40;99.90;;;;;;5014699;28;20033;-63
2023/02/15 06:30:56;;;;;;;60.05;28.85;;;3.30;99.90;;;;;;5013692;28;20030;-63
2023/02/15 06:33:22;;;;;;;60.75;29.38;;;3.30;99.90;;;;;;5014284;28;20109;-63
2023/02/15 06:35:47;;;;;;;63.92;30.92;;;3.40;99.90;;;;;;5034118;28;20389;-63
2023/02/15 06:38:13;;;;;;;58.42;30.45;;;3.30;99.90;;;;;;5017070;28;20029;-63
2023/02/15 06:40:38;;;;;;;55.55;30.02;;;3.30;99.90;;;;;;5009923;28;20048;-62
2023/02/15 06:43:04;;;;;;;54.13;28.73;;;3.30;99.90;;;;;;5012794;28;20505;-64
2023/02/15 06:45:30;;;;;;;62.88;30.05;;;3.40;99.90;;;;;;5007240;28;20056;-63
2023/02/15 06:47:55;;;;;;;61.80;31.60;;;3.40;99.90;;;;;;5015527;28;20057;-64
2023/02/15 06:50:21;;;;;;;60.90;29.10;;;3.50;99.90;;;;;;4992557;28;20038;-64
2023/02/15 06:52:47;;;;;;;54.88;28.73;;;3.50;99.90;;;;;;5009784;28;20532;-64
2023/02/15 06:55:12;;;;;;;62.92;29.40;;;3.40;99.90;;;;;;5008140;28;20548;-65
2023/02/15 06:57:38;;;;;;;59.60;27.17;;;3.50;99.90;;;;;;5011124;28;20100;-65
2023/02/15 07:00:04;;;;;;;52.25;26.88;;;3.50;99.90;;;;;;5010681;28;20728;-65
2023/02/15 07:02:58;;;;;;;;;;;3.50;99.90;;;;;;5012434;28;20072;-64
2023/02/15 07:05:45;;;;;;;46.75;24.77;;;3.50;99.90;;;;;;5011006;28;19917;-65
2023/02/15 07:08:31;;;;;;;50.05;25.40;;;3.40;99.90;;;;;;5012516;28;20029;-65
2023/02/15 07:14:41;;;;;;;55.58;26.52;;;3.50;99.90;;;;;;4934551;28;20102;-64
2023/02/15 07:17:28;;;;;;;47.15;25.88;;;3.50;99.90;;;;;;4934125;29;20035;-65
2023/02/15 07:20:17;;;;;;;57.08;26.88;;;3.50;99.90;;;;;;4993098;28;20049;-64
2023/02/15 07:23:04;;;;;;;55.55;29.90;;;3.60;99.90;;;;;;5011771;28;20507;-65
2023/02/15 07:25:59;;;;;;;43.67;24.75;;;3.60;99.90;;;;;;5011869;28;20025;-65
2023/02/15 07:28:45;;;;;;;49.95;24.77;;;3.60;99.90;;;;;;5009997;28;20044;-65
2023/02/15 07:31:31;;;;;;;67.25;29.25;;;3.70;99.90;;;;;;5008050;28;20034;-65
2023/02/15 07:34:17;;;;;;;58.47;28.20;;;3.70;99.90;;;;;;5012769;28;20026;-65
2023/02/15 07:37:04;;;;;;;52.80;27.10;;;3.80;99.90;;;;;;5008590;28;20505;-65
2023/02/15 07:39:50;;;;;;;47.80;27.38;;;3.80;99.90;;;;;;5006774;28;20313;-65
2023/02/15 07:42:36;;;;;;;56.67;26.17;;;3.90;99.90;;;;;;5008583;28;20088;-65
2023/02/15 07:45:22;;;;;;;47.42;27.15;;;3.90;99.90;;;;;;5008274;28;20041;-65
2023/02/15 07:48:08;;;;;;;47.70;26.02;;;3.90;99.90;;;;;;5016751;28;20602;-65
2023/02/15 07:50:58;;;;;;;55.28;25.25;;;4.00;99.90;;;;;;5009056;28;20037;-65
2023/02/15 07:53:44;;;;;;;53.08;27.33;;;4.00;99.90;;;;;;5010412;28;20401;-64
2023/02/15 07:56:30;;;;;;;48.75;25.70;;;4.00;99.90;;;;;;5007506;28;20124;-65
2023/02/15 07:59:16;;;;;;;51.22;23.88;;;4.00;99.90;;;;;;5009989;28;20044;-65
2023/02/15 08:02:02;;;;;;;43.42;23.58;;;4.10;99.90;;;;;;5009379;28;20037;-65
2023/02/15 08:04:48;;;;;;;51.67;24.95;;;4.10;99.90;;;;;;5009681;28;20433;-65
2023/02/15 08:07:34;;;;;;;50.50;26.50;;;4.20;99.90;;;;;;4997517;28;20100;-65
2023/02/15 08:11:25;;;;;;;59.00;27.73;;;4.20;99.90;;;;;;4994668;28;20033;-65
2023/02/15 08:13:25;;;;;;;53.70;24.88;;;4.20;99.90;;;;;;5011382;28;20437;-65
2023/02/15 08:16:11;;;;;;;54.08;26.55;;;4.20;99.90;;;;;;4994403;28;20649;-65
2023/02/15 08:18:59;;;;;;;47.35;26.10;;;4.20;99.90;;;;;;5013142;28;20029;-65
2023/02/15 08:21:48;;;;;;;40.15;23.55;;;4.20;99.90;;;;;;5008618;28;20531;-66
2023/02/15 08:24:39;;;;;;;50.03;25.23;;;4.30;99.90;;;;;;5010230;28;20484;-65
2023/02/15 08:27:26;;;;;;;53.78;26.05;;;4.30;99.90;;;;;;5011406;28;20136;-65
2023/02/15 08:30:13;;;;;;;47.05;26.58;;;4.30;99.90;;;;;;5011326;28;20448;-65
2023/02/15 08:32:59;;;;;;;43.35;23.48;;;4.30;99.90;;;;;;5009112;28;20052;-65
2023/02/15 08:35:45;;;;;;;49.05;24.17;;;4.30;99.90;;;;;;5008584;28;20033;-66
2023/02/15 08:38:32;;;;;;;47.78;25.15;;;4.40;99.90;;;;;;5009602;28;20030;-65
2023/02/15 08:41:20;;;;;;;46.10;24.73;;;4.50;99.90;;;;;;5007846;28;20057;-65
2023/02/15 08:44:08;;;;;;;44.00;24.00;;;4.50;99.90;;;;;;5009248;28;20033;-65
2023/02/15 08:46:54;;;;;;;40.80;22.27;;;4.60;99.90;;;;;;5009246;28;20037;-66
2023/02/15 08:49:40;;;;;;;43.35;22.70;;;4.60;99.90;;;;;;5012572;28;20021;-66
2023/02/15 08:52:26;;;;;;;46.72;24.27;;;4.70;99.90;;;;;;5010586;28;20304;-66
2023/02/15 08:55:12;;;;;;;42.55;23.80;;;4.80;99.90;;;;;;5010568;28;20057;-66
2023/02/15 08:57:58;;;;;;;43.78;24.50;;;4.80;99.90;;;;;;5010733;28;20132;-66
2023/02/15 09:00:44;;;;;;;42.17;23.63;;;4.90;99.90;;;;;;5010337;28;20278;-66
2023/02/15 09:03:30;;;;;;;39.72;23.60;;;5.00;99.90;;;;;;5010726;28;20036;-66
2023/02/15 09:06:17;;;;;;;44.83;25.88;;;5.00;99.90;;;;;;5009546;28;20485;-66
2023/02/15 09:09:03;;;;;;;43.10;24.02;;;5.00;99.90;;;;;;5011556;28;20029;-64
2023/02/15 09:11:51;;;;;;;43.45;23.15;;;5.00;99.90;;;;;;5010026;28;20750;-66
2023/02/15 09:14:37;;;;;;;41.50;22.50;;;5.10;99.90;;;;;;5011648;28;20032;-64
2023/02/15 09:17:23;;;;;;;42.60;25.38;;;5.10;99.90;;;;;;5014780;28;20041;-65
2023/02/15 09:20:09;;;;;;;42.65;23.35;;;5.20;99.90;;;;;;5014676;28;20044;-65
2023/02/15 09:22:55;;;;;;;38.78;21.45;;;5.30;99.90;;;;;;5012056;28;20038;-65
2023/02/15 09:25:42;;;;;;;42.45;21.20;;;5.40;99.90;;;;;;5014513;28;20548;-65
2023/02/15 09:28:28;;;;;;;34.35;20.55;;;5.40;99.90;;;;;;5015802;28;20039;-65
2023/02/15 09:31:16;;;;;;;35.28;21.27;;;5.40;99.90;;;;;;5014424;28;21112;-64
2023/02/15 09:34:03;;;;;;;37.70;22.13;;;5.50;99.90;;;;;;5013455;28;21843;-65
2023/02/15 09:36:50;;;;;;;38.17;21.70;;;5.50;99.90;;;;;;5013891;28;20167;-65
2023/02/15 09:39:40;;;;;;;34.33;20.15;;;5.60;99.90;;;;;;4998282;28;20030;-65
2023/02/15 09:42:41;;;;;;;39.17;21.67;;;5.60;99.90;;;;;;5013108;28;20038;-66
2023/02/15 09:46:21;;;;;;;38.83;22.15;;;5.70;99.90;;;;;;5012634;28;20029;-65
2023/02/15 09:49:19;;;;;;;37.42;22.10;;;5.70;99.90;;;;;;5015620;28;20053;-64
2023/02/15 09:52:33;;;;;;;43.22;23.15;;;5.70;99.90;;;;;;5011834;28;20041;-65
2023/02/15 09:55:37;;;;;;;39.67;23.23;;;5.80;99.90;;;;;;5011383;28;20037;-66
2023/02/15 09:58:46;;;;;;;40.05;22.13;;;5.90;99.90;;;;;;5007066;28;20037;-66
2023/02/15 10:01:43;;;;;;;33.97;20.38;;;5.90;99.90;;;;;;5013591;28;20761;-66
2023/02/15 10:04:51;;;;;;;32.05;20.02;;;5.90;99.90;;;;;;4997987;28;20036;-66
2023/02/15 10:08:03;;;;;;;35.78;21.13;;;5.90;99.90;;;;;;5011786;28;20108;-66
2023/02/15 10:11:38;;;;;;;29.67;17.27;;;6.00;99.90;;;;;;4997147;28;20534;-66
2023/02/15 10:14:45;;;;;;;30.15;18.85;;;6.10;99.90;;;;;;5009772;28;20037;-65
2023/02/15 10:17:36;;;;;;;27.17;17.92;;;6.20;99.90;;;;;;5014850;28;20445;-65
2023/02/15 10:20:40;;;;;;;34.17;19.60;;;6.20;99.90;;;;;;5013482;28;20033;-66
2023/02/15 10:23:28;;;;;;;33.35;19.35;;;6.30;99.90;;;;;;5012106;28;20124;-65
2023/02/15 10:26:17;;;;;;;33.53;18.75;;;6.20;99.90;;;;;;5010956;28;20116;-66
2023/02/15 10:29:17;;;;;;;33.20;19.67;;;6.30;99.90;;;;;;5012684;28;20045;-65
2023/02/15 10:32:23;;;;;;;31.02;18.13;;;6.30;99.80;;;;;;5010471;28;20056;-64
2023/02/15 10:35:11;;;;;;;32.53;18.90;;;6.30;99.90;;;;;;5013055;28;20046;-65
2023/02/15 10:38:12;;;;;;;32.20;20.30;;;6.40;99.90;;;;;;5011772;28;20033;-65
2023/02/15 10:41:28;;;;;;;31.85;19.70;;;6.40;99.90;;;;;;5012560;28;20189;-65
2023/02/15 10:44:23;;;;;;;;;;;6.50;99.90;;;;;;5012828;28;20112;-65
2023/02/15 10:47:43;;;;;;;32.03;18.95;;;6.50;99.90;;;;;;5011942;28;19957;-65
2023/02/15 10:50:47;;;;;;;32.40;19.17;;;6.50;99.80;;;;;;5011473;28;20067;-65
2023/02/15 10:53:36;;;;;;;34.63;20.08;;;6.50;99.80;;;;;;5011766;28;20122;-66
2023/02/15 10:56:31;;;;;;;48.10;20.88;;;6.50;99.80;;;;;;5012673;28;20045;-65
2023/02/15 10:59:35;;;;;;;30.48;19.38;;;6.50;99.70;;;;;;5011168;28;20155;-65
2023/02/15 11:02:30;;;;;;;74.45;25.25;;;6.50;99.60;;;;;;5007973;28;20067;-65
2023/02/15 11:05:43;;;;;;;43.05;20.58;;;6.50;99.60;;;;;;5009885;28;20075;-66
2023/02/15 11:08:36;;;;;;;42.42;21.90;;;6.50;99.70;;;;;;5010921;28;20037;-65
2023/02/15 11:11:31;;;;;;;35.58;20.05;;;6.50;99.70;;;;;;5011488;28;20036;-65
2023/02/15 11:14:26;;;;;;;31.25;20.35;;;6.50;99.60;;;;;;5005063;28;20038;-66
2023/02/15 11:17:20;;;;;;;34.72;20.38;;;6.50;99.60;;;;;;4996218;28;20037;-65
2023/02/15 11:20:27;;;;;;;35.20;20.15;;;6.50;99.50;;;;;;5010563;28;20104;-65
2023/02/15 11:23:16;;;;;;;32.17;21.35;;;6.50;99.60;;;;;;5010027;28;20033;-65
2023/02/15 11:26:30;;;;;;;32.45;18.98;;;6.60;99.60;;;;;;5010071;28;20363;-66
2023/02/15 11:29:28;;;;;;;29.98;18.85;;;6.60;99.60;;;;;;5013195;28;20497;-66
2023/02/15 11:32:24;;;;;;;29.85;18.63;;;6.50;99.50;;;;;;5009915;28;20049;-66
2023/02/15 11:35:10;;;;;;;34.33;21.33;;;6.60;99.60;;;;;;5012327;28;20045;-65
2023/02/15 11:38:18;;;;;;;33.00;20.75;;;6.60;99.70;;;;;;5007251;28;20416;-65
2023/02/15 11:41:11;;;;;;;29.08;18.08;;;6.70;99.70;;;;;;5008765;28;20029;-66
2023/02/15 11:44:15;;;;;;;32.40;18.92;;;6.80;99.70;;;;;;5008639;28;20120;-65
2023/02/15 11:47:02;;;;;;;34.10;18.38;;;6.80;99.60;;;;;;4997598;28;20041;-65
2023/02/15 11:49:48;;;;;;;31.33;18.48;;;6.90;99.70;;;;;;5016732;28;20026;-65
2023/02/15 11:52:34;;;;;;;29.67;17.98;;;7.00;99.70;;;;;;5010751;28;20393;-66
2023/02/15 11:55:23;;;;;;;32.17;20.02;;;7.00;99.70;;;;;;5004460;28;20026;-66
2023/02/15 11:58:47;;;;;;;30.55;19.15;;;7.10;99.70;;;;;;5011568;28;21730;-65
2023/02/15 12:01:40;;;;;;;29.48;18.83;;;7.20;99.70;;;;;;4887529;29;20059;-65
2023/02/15 12:04:43;;;;;;;34.83;18.38;;;7.20;99.70;;;;;;5012849;28;20029;-65
2023/02/15 12:07:43;;;;;;;36.78;18.30;;;7.30;99.70;;;;;;5009597;28;20038;-65
2023/02/15 12:10:39;;;;;;;67.40;23.58;;;7.30;99.60;;;;;;5014262;28;20033;-65
2023/02/15 12:13:25;;;;;;;33.97;18.50;;;7.40;99.70;;;;;;5012050;28;20041;-65
2023/02/15 12:16:12;;;;;;;42.92;20.75;;;7.40;99.70;;;;;;5010472;28;20026;-65
2023/02/15 12:19:02;;;;;;;34.22;19.63;;;7.50;99.60;;;;;;5011104;28;20037;-65
2023/02/15 12:21:52;;;;;;;30.33;18.75;;;7.60;99.50;;;;;;5007670;28;20099;-65
2023/02/15 12:24:45;;;;;;;30.70;18.48;;;7.60;99.50;;;;;;5008598;28;20044;-66
2023/02/15 12:27:34;;;;;;;34.45;19.95;;;7.70;99.50;;;;;;4989760;28;20063;-64
2023/02/15 12:30:23;;;;;;;34.28;19.90;;;7.80;99.50;;;;;;4997440;28;20029;-65
2023/02/15 12:33:29;;;;;;;30.83;18.25;;;7.80;99.40;;;;;;4996599;28;20077;-64
2023/02/15 12:36:24;;;;;;;29.20;17.63;;;7.90;99.30;;;;;;5011702;28;20037;-65
2023/02/15 12:39:13;;;;;;;28.77;18.17;;;8.00;99.30;;;;;;5010253;28;20049;-65
2023/02/15 12:42:15;;;;;;;27.60;17.77;;;8.00;99.40;;;;;;5004736;28;20037;-65
2023/02/15 12:45:18;;;;;;;28.70;18.33;;;8.10;99.30;;;;;;5010436;28;20525;-66
2023/02/15 12:48:11;;;;;;;26.45;16.77;;;8.10;99.20;;;;;;5011210;28;20140;-65
2023/02/15 12:51:08;;;;;;;34.20;18.88;;;8.20;99.20;;;;;;5009436;28;20040;-65
2023/02/15 12:53:54;;;;;;;29.75;17.95;;;8.30;99.20;;;;;;5011007;28;20042;-65
2023/02/15 12:56:40;;;;;;;29.83;19.80;;;8.40;99.20;;;;;;4995853;28;20069;-65
2023/02/15 12:59:26;;;;;;;32.58;18.52;;;8.40;99.10;;;;;;5007227;28;20049;-65
2023/02/15 13:02:24;;;;;;;55.13;21.58;;;8.50;99.10;;;;;;5007170;28;20033;-65
2023/02/15 13:05:18;;;;;;;30.15;17.73;;;8.60;99.10;;;;;;5005959;28;20470;-65
2023/02/15 13:08:15;;;;;;;51.35;19.92;;;8.60;99.00;;;;;;5006364;28;20504;-65
2023/02/15 13:11:08;;;;;;;29.33;18.50;;;8.70;99.10;;;;;;5007201;28;20036;-65
2023/02/15 13:13:58;;;;;;;28.00;17.90;;;8.80;99.00;;;;;;4997390;28;20119;-64
2023/02/15 13:16:47;;;;;;;31.38;18.77;;;8.90;99.00;;;;;;5008405;28;20037;-64
2023/02/15 13:19:54;;;;;;;26.90;17.02;;;9.00;99.00;;;;;;5007329;28;20045;-65
2023/02/15 13:22:45;;;;;;;28.83;16.55;;;9.10;98.90;;;;;;5009055;28;20041;-65
2023/02/15 13:25:40;;;;;;;26.98;17.08;;;9.20;98.80;;;;;;5008184;28;20037;-66
2023/02/15 13:28:42;;;;;;;23.52;15.20;;;9.30;98.90;;;;;;5007287;28;20111;-65
2023/02/15 13:31:32;;;;;;;34.40;18.38;;;9.40;98.80;;;;;;4992101;28;20123;-63
2023/02/15 13:34:35;;;;;;;26.83;18.08;;;9.40;98.80;;;;;;5010849;28;20065;-65
2023/02/15 13:37:36;;;;;;;24.75;16.10;;;9.50;98.80;;;;;;5009044;28;20107;-65
2023/02/15 13:40:37;;;;;;;23.70;15.63;;;9.60;98.70;;;;;;5010277;28;20149;-65
2023/02/15 13:44:05;;;;;;;27.88;17.63;;;9.60;98.50;;;;;;5010121;28;20084;-65
2023/02/15 13:47:26;;;;;;;26.05;16.52;;;9.80;98.60;;;;;;5002169;28;20052;-65
2023/02/15 13:50:37;;;;;;;29.15;18.52;;;9.90;98.50;;;;;;5007684;28;20041;-65
2023/02/15 13:53:32;;;;;;;26.52;16.15;;;10.00;98.40;;;;;;5007693;28;20472;-65
2023/02/15 13:57:12;;;;;;;22.97;15.83;;;10.20;98.40;;;;;;5006893;28;20478;-65
2023/02/15 14:00:33;;;;;;;26.63;16.63;;;10.30;98.40;;;;;;4927022;28;20461;-65
2023/02/15 14:03:40;;;;;;;28.02;17.23;;;10.30;98.20;;;;;;4932094;28;20404;-65
2023/02/15 14:06:46;;;;;;;26.27;15.88;;;10.40;98.20;;;;;;4993644;28;20754;-65
2023/02/15 14:09:32;;;;;;;;;;;10.50;98.20;;;;;;4993839;28;20038;-65
2023/02/15 14:12:44;;;;;;;25.05;16.05;;;10.60;98.40;;;;;;4993723;28;19944;-65
2023/02/15 14:15:47;;;;;;;30.40;17.13;;;10.70;98.20;;;;;;4989538;28;20046;-65
2023/02/15 14:18:38;;;;;;;26.67;17.02;;;10.70;97.90;;;;;;4992144;28;20144;-65
2023/02/15 14:21:31;;;;;;;24.15;15.52;;;10.80;97.70;;;;;;4992372;28;20034;-65